Time;durP1;ratioP1;P1;durP2;ratioP2;P2;SDS_P1;SDS_P2;PMS_P1;PMS_P2;Temp;Humidity;BMP_temperature;BMP_pressure;BME280_temperature;BME280_humidity;BME280_pressure;Samples;Min_cycle;Max_cycle;Signal;HPM_P1;HPM_P2
2021/11/22 00:02:15;;;;;;;3.95;1.40;;;15.60;99.90;;;;;;5029103;28;20117;-75
2021/11/22 00:04:41;;;;;;;2.40;0.60;;;15.60;99.90;;;;;;5015105;28;20087;-75
2021/11/22 00:07:07;;;;;;;1.63;0.40;;;15.60;99.90;;;;;;5024329;28;20049;-76
2021/11/22 00:09:33;;;;;;;3.47;0.77;;;15.50;99.90;;;;;;5030427;28;20042;-75
2021/11/22 00:12:00;;;;;;;2.40;0.73;;;15.50;99.90;;;;;;5031784;28;20508;-75
2021/11/22 00:14:25;;;;;;;2.60;0.65;;;15.50;99.90;;;;;;5032298;28;20056;-77
2021/11/22 00:16:51;;;;;;;2.70;0.82;;;15.50;99.90;;;;;;5029895;28;20053;-75
2021/11/22 00:19:17;;;;;;;3.33;0.70;;;15.50;99.90;;;;;;5032466;28;20042;-75
2021/11/22 00:21:43;;;;;;;3.60;0.75;;;15.40;99.90;;;;;;5031908;28;20041;-76
2021/11/22 00:24:09;;;;;;;3.38;0.75;;;15.50;99.90;;;;;;5031685;28;20052;-75
2021/11/22 00:26:35;;;;;;;4.75;1.17;;;15.50;99.90;;;;;;5025944;28;20148;-76
2021/11/22 00:29:00;;;;;;;4.03;1.38;;;15.40;99.90;;;;;;5031278;28;20120;-75
2021/11/22 00:31:26;;;;;;;2.33;0.68;;;15.40;99.90;;;;;;5032532;28;20045;-75
2021/11/22 00:33:53;;;;;;;3.15;0.90;;;15.40;99.90;;;;;;5031849;28;20045;-75
2021/11/22 00:36:19;;;;;;;3.90;0.60;;;15.40;99.90;;;;;;5029543;28;20814;-76
2021/11/22 00:38:44;;;;;;;2.42;0.80;;;15.40;99.90;;;;;;5031699;28;20048;-75
2021/11/22 00:41:10;;;;;;;2.08;0.70;;;15.40;99.90;;;;;;5032048;28;20501;-75
2021/11/22 00:43:36;;;;;;;2.85;0.90;;;15.40;99.90;;;;;;5030171;28;20037;-76
2021/11/22 00:46:02;;;;;;;1.15;0.40;;;15.30;99.90;;;;;;5032429;28;20041;-75
2021/11/22 00:48:28;;;;;;;0.65;0.47;;;15.30;99.90;;;;;;5030156;28;20055;-75
2021/11/22 00:50:55;;;;;;;1.02;0.60;;;15.30;99.90;;;;;;5029545;28;20061;-75
2021/11/22 00:53:21;;;;;;;2.05;0.63;;;15.30;99.90;;;;;;5026300;28;20128;-75
2021/11/22 00:55:48;;;;;;;2.05;0.60;;;15.30;99.90;;;;;;5031499;28;20045;-75
2021/11/22 00:58:14;;;;;;;1.95;0.70;;;15.30;99.90;;;;;;5030418;28;20045;-75
2021/11/22 01:00:40;;;;;;;1.10;0.50;;;15.30;99.90;;;;;;5029882;28;20440;-76
2021/11/22 01:03:05;;;;;;;1.73;0.70;;;15.20;99.90;;;;;;5030065;28;20057;-75
2021/11/22 01:05:32;;;;;;;1.63;0.63;;;15.20;99.90;;;;;;5031458;28;20052;-77
2021/11/22 01:07:57;;;;;;;1.80;0.65;;;15.20;99.90;;;;;;5030322;28;20045;-75
2021/11/22 01:10:23;;;;;;;2.42;0.70;;;15.20;99.90;;;;;;5030367;28;20041;-75
2021/11/22 01:12:50;;;;;;;5.13;0.88;;;15.20;99.90;;;;;;5028097;28;20049;-75
2021/11/22 01:15:19;;;;;;;0.57;0.40;;;15.20;99.90;;;;;;5031328;28;20072;-75
2021/11/22 01:17:47;;;;;;;4.87;0.60;;;15.20;99.90;;;;;;5030942;28;20565;-75
2021/11/22 01:20:16;;;;;;;1.23;0.57;;;15.10;99.90;;;;;;5029833;28;20045;-76
2021/11/22 01:22:43;;;;;;;2.42;0.70;;;15.20;99.90;;;;;;5029780;28;20053;-75
2021/11/22 01:25:11;;;;;;;2.67;0.63;;;15.20;99.90;;;;;;5031215;28;20045;-75
2021/11/22 01:27:37;;;;;;;1.42;0.80;;;15.10;99.90;;;;;;5029926;28;20045;-75
2021/11/22 01:30:05;;;;;;;2.67;0.60;;;15.10;99.90;;;;;;5029624;28;20053;-75
2021/11/22 01:32:31;;;;;;;2.13;0.75;;;15.10;99.90;;;;;;5030137;28;20045;-75
2021/11/22 01:34:56;;;;;;;2.55;0.77;;;15.10;99.90;;;;;;5030409;28;20111;-75
2021/11/22 01:37:24;;;;;;;2.38;0.60;;;15.10;99.90;;;;;;5031066;28;20113;-75
2021/11/22 01:39:50;;;;;;;1.10;0.43;;;15.10;99.90;;;;;;5028795;28;20541;-76
2021/11/22 01:42:16;;;;;;;1.20;0.52;;;15.10;99.90;;;;;;5030831;28;20161;-76
2021/11/22 01:44:41;;;;;;;1.75;0.70;;;15.00;99.90;;;;;;5041750;28;20085;-75
2021/11/22 01:47:07;;;;;;;1.25;0.73;;;15.10;99.90;;;;;;5025797;28;20485;-75
2021/11/22 01:49:33;;;;;;;0.75;0.60;;;15.00;99.90;;;;;;5029261;28;20508;-76
2021/11/22 01:51:59;;;;;;;0.50;0.30;;;15.00;99.90;;;;;;5030515;28;20050;-75
2021/11/22 01:54:24;;;;;;;2.17;0.63;;;15.00;99.90;;;;;;5030688;28;20543;-75
2021/11/22 01:56:50;;;;;;;1.25;0.40;;;15.00;99.90;;;;;;5028836;28;20492;-75
2021/11/22 01:59:16;;;;;;;1.00;0.52;;;15.00;99.90;;;;;;5030598;28;20068;-75
2021/11/22 02:01:43;;;;;;;1.27;0.40;;;14.90;99.90;;;;;;5030790;28;20045;-75
2021/11/22 02:04:10;;;;;;;2.42;0.80;;;15.00;99.90;;;;;;5030507;28;20081;-75
2021/11/22 02:06:36;;;;;;;1.85;0.55;;;15.00;99.90;;;;;;5024853;28;20053;-76
2021/11/22 02:09:03;;;;;;;1.30;0.40;;;15.00;99.90;;;;;;5029927;28;20111;-75
2021/11/22 02:11:29;;;;;;;1.20;0.73;;;14.90;99.90;;;;;;5030437;28;20366;-75
2021/11/22 02:13:55;;;;;;;1.60;0.55;;;14.90;99.90;;;;;;5012413;28;20084;-76
2021/11/22 02:16:21;;;;;;;0.85;0.40;;;14.90;99.90;;;;;;5027675;28;20512;-75
2021/11/22 02:18:46;;;;;;;0.65;0.50;;;14.90;99.90;;;;;;5030008;28;20046;-75
2021/11/22 02:21:14;;;;;;;0.80;0.50;;;14.90;99.90;;;;;;5030184;28;20042;-75
2021/11/22 02:23:40;;;;;;;0.70;0.35;;;14.90;99.90;;;;;;5030274;28;20049;-77
2021/11/22 02:26:06;;;;;;;1.67;0.50;;;14.90;99.90;;;;;;5028820;28;20084;-76
2021/11/22 02:28:31;;;;;;;2.25;0.75;;;14.90;99.90;;;;;;5029191;28;20072;-75
2021/11/22 02:30:57;;;;;;;0.88;0.40;;;14.80;99.90;;;;;;5029705;28;20041;-75
2021/11/22 02:33:24;;;;;;;1.95;0.40;;;14.80;99.90;;;;;;5028882;28;20107;-76
2021/11/22 02:35:58;;;;;;;1.67;0.30;;;14.80;99.90;;;;;;5028387;28;20125;-75
2021/11/22 02:38:28;;;;;;;1.45;0.60;;;14.80;99.90;;;;;;5016841;28;20042;-75
2021/11/22 02:40:54;;;;;;;1.13;0.47;;;14.80;99.90;;;;;;5018237;28;20120;-75
2021/11/22 02:43:20;;;;;;;1.95;0.70;;;14.80;99.90;;;;;;5012455;28;20049;-75
2021/11/22 02:45:46;;;;;;;2.88;0.57;;;14.80;99.90;;;;;;5028129;28;20470;-75
2021/11/22 02:48:12;;;;;;;2.92;0.60;;;14.80;99.90;;;;;;5021467;28;20061;-75
2021/11/22 02:50:38;;;;;;;0.80;0.50;;;14.80;99.90;;;;;;5026384;28;20046;-75
2021/11/22 02:53:04;;;;;;;1.17;0.60;;;14.70;99.90;;;;;;5028858;28;20111;-75
2021/11/22 02:55:30;;;;;;;3.40;0.60;;;14.70;99.90;;;;;;5029854;28;20414;-75
2021/11/22 02:57:55;;;;;;;1.48;0.40;;;14.70;99.90;;;;;;5027594;28;20041;-76
2021/11/22 03:00:24;;;;;;;0.50;0.20;;;14.70;99.90;;;;;;5028710;28;20059;-75
2021/11/22 03:02:50;;;;;;;2.10;0.43;;;14.70;99.90;;;;;;5029186;28;20049;-75
2021/11/22 03:05:16;;;;;;;1.30;0.60;;;14.70;99.90;;;;;;5029721;28;20056;-75
2021/11/22 03:07:42;;;;;;;0.85;0.38;;;14.70;99.90;;;;;;5018851;28;20571;-75
2021/11/22 03:10:09;;;;;;;2.40;0.60;;;14.70;99.90;;;;;;5020676;28;20088;-75
2021/11/22 03:12:35;;;;;;;1.70;0.43;;;14.60;99.90;;;;;;5023244;28;20081;-76
2021/11/22 03:15:03;;;;;;;0.55;0.45;;;14.70;99.90;;;;;;5027549;28;20444;-75
2021/11/22 03:17:29;;;;;;;2.58;0.77;;;14.60;99.90;;;;;;5028775;28;20076;-74
2021/11/22 03:19:54;;;;;;;0.50;0.30;;;14.60;99.90;;;;;;5029128;28;20041;-75
2021/11/22 03:22:20;;;;;;;0.45;0.40;;;14.60;99.90;;;;;;5028017;28;20111;-75
2021/11/22 03:24:46;;;;;;;0.47;0.47;;;14.60;99.90;;;;;;5027968;28;20052;-77
2021/11/22 03:27:12;;;;;;;1.50;0.22;;;14.60;99.90;;;;;;5029270;28;20404;-75
2021/11/22 03:29:37;;;;;;;0.50;0.35;;;14.60;99.90;;;;;;5029583;28;20076;-75
2021/11/22 03:32:03;;;;;;;1.20;0.60;;;14.60;99.90;;;;;;5028638;28;20081;-75
2021/11/22 03:34:29;;;;;;;1.38;0.40;;;14.60;99.90;;;;;;5028552;28;20500;-75
2021/11/22 03:37:01;;;;;;;0.82;0.38;;;14.50;99.90;;;;;;5044166;28;20053;-74
2021/11/22 03:39:28;;;;;;;1.33;0.40;;;14.50;99.90;;;;;;5029696;28;20045;-74
2021/11/22 03:41:55;;;;;;;0.77;0.50;;;14.50;99.90;;;;;;5028756;28;20117;-74
2021/11/22 03:44:21;;;;;;;1.67;0.50;;;14.50;99.90;;;;;;5028575;28;20056;-75
2021/11/22 03:46:50;;;;;;;0.98;0.68;;;14.50;99.90;;;;;;5029135;28;20037;-75
2021/11/22 03:49:16;;;;;;;1.27;0.43;;;14.50;99.90;;;;;;5029216;28;20066;-75
2021/11/22 03:51:43;;;;;;;1.83;0.55;;;14.40;99.90;;;;;;5029420;28;20057;-75
2021/11/22 03:54:10;;;;;;;0.35;0.35;;;14.50;99.90;;;;;;5028679;28;20742;-75
2021/11/22 03:56:37;;;;;;;0.93;0.50;;;14.40;99.90;;;;;;5029170;28;20511;-76
2021/11/22 03:59:04;;;;;;;0.35;0.35;;;14.40;99.90;;;;;;5027696;28;20049;-75
2021/11/22 04:01:30;;;;;;;0.35;0.30;;;14.40;99.90;;;;;;5022408;28;20414;-75
2021/11/22 04:03:55;;;;;;;0.70;0.47;;;14.40;99.90;;;;;;5030575;28;20057;-75
2021/11/22 04:06:21;;;;;;;0.75;0.30;;;14.40;99.90;;;;;;5032912;28;20053;-75
2021/11/22 04:08:47;;;;;;;1.15;0.50;;;14.40;99.90;;;;;;5032470;28;20049;-76
2021/11/22 04:11:13;;;;;;;1.55;0.35;;;14.40;99.90;;;;;;5031943;28;20049;-75
2021/11/22 04:13:38;;;;;;;1.33;0.20;;;14.40;99.90;;;;;;5032983;28;20073;-75
2021/11/22 04:16:04;;;;;;;0.88;0.55;;;14.40;99.90;;;;;;5021993;28;20470;-76
2021/11/22 04:18:31;;;;;;;0.50;0.25;;;14.40;99.90;;;;;;5031598;28;20481;-75
2021/11/22 04:20:57;;;;;;;0.38;0.20;;;14.40;99.90;;;;;;5030564;28;20044;-75
2021/11/22 04:23:23;;;;;;;0.93;0.30;;;14.40;99.90;;;;;;5021541;28;20041;-75
2021/11/22 04:25:49;;;;;;;1.05;0.22;;;14.30;99.90;;;;;;5032626;28;20387;-75
2021/11/22 04:28:15;;;;;;;0.75;0.30;;;14.30;99.90;;;;;;5030764;28;20067;-76
2021/11/22 04:30:42;;;;;;;1.50;0.47;;;14.30;99.90;;;;;;5031036;28;20041;-75
2021/11/22 04:33:08;;;;;;;1.58;0.38;;;14.30;99.90;;;;;;5028762;28;20053;-75
2021/11/22 04:35:34;;;;;;;0.38;0.38;;;14.30;99.90;;;;;;5032515;28;20037;-75
2021/11/22 04:38:00;;;;;;;0.47;0.30;;;14.30;99.90;;;;;;5031759;28;20127;-75
2021/11/22 04:40:27;;;;;;;2.42;0.50;;;14.30;99.90;;;;;;5032195;28;20064;-75
2021/11/22 04:42:53;;;;;;;0.40;0.35;;;14.30;99.90;;;;;;5020622;28;20520;-75
2021/11/22 04:45:23;;;;;;;0.40;0.40;;;14.30;99.90;;;;;;5028697;28;20132;-75
2021/11/22 04:47:50;;;;;;;2.17;0.40;;;14.30;99.90;;;;;;5031324;28;20405;-75
2021/11/22 04:50:17;;;;;;;1.00;0.20;;;14.20;99.90;;;;;;5031337;28;20053;-75
2021/11/22 04:52:44;;;;;;;1.10;0.50;;;14.30;99.90;;;;;;5029625;28;20052;-75
2021/11/22 04:55:13;;;;;;;1.30;0.38;;;14.30;99.90;;;;;;5029442;28;20049;-76
2021/11/22 04:57:39;;;;;;;0.40;0.30;;;14.20;99.90;;;;;;5018678;28;20474;-75
2021/11/22 05:00:06;;;;;;;0.35;0.20;;;14.20;99.90;;;;;;5030355;28;20061;-75
2021/11/22 05:02:32;;;;;;;0.60;0.40;;;14.20;99.90;;;;;;5030633;28;20508;-75
2021/11/22 05:04:57;;;;;;;1.58;0.40;;;14.20;99.90;;;;;;5021291;28;20045;-77
2021/11/22 05:07:23;;;;;;;1.40;0.40;;;14.20;99.90;;;;;;5030657;28;20106;-75
2021/11/22 05:09:49;;;;;;;0.88;0.40;;;14.20;99.90;;;;;;5030536;28;20073;-75
2021/11/22 05:12:16;;;;;;;0.45;0.35;;;14.20;99.90;;;;;;5030003;28;20277;-74
2021/11/22 05:14:42;;;;;;;0.68;0.40;;;14.20;99.90;;;;;;5020172;28;20049;-74
2021/11/22 05:17:08;;;;;;;0.68;0.22;;;14.10;99.90;;;;;;5046420;28;20045;-76
2021/11/22 05:19:34;;;;;;;1.35;0.32;;;14.10;99.90;;;;;;5031212;28;20107;-75
2021/11/22 05:22:01;;;;;;;0.90;0.35;;;14.10;99.90;;;;;;5031052;28;20103;-77
2021/11/22 05:24:28;;;;;;;2.10;0.40;;;14.10;99.90;;;;;;5023720;28;20046;-75
2021/11/22 05:26:54;;;;;;;0.50;0.50;;;14.10;99.90;;;;;;5030542;28;20056;-75
2021/11/22 05:29:20;;;;;;;1.10;0.38;;;14.10;99.90;;;;;;5030901;28;20222;-75
2021/11/22 05:31:48;;;;;;;0.30;0.30;;;14.10;99.90;;;;;;5031138;28;20067;-75
2021/11/22 05:34:17;;;;;;;0.95;0.50;;;14.10;99.90;;;;;;5028781;28;20053;-75
2021/11/22 05:36:43;;;;;;;0.50;0.32;;;14.10;99.90;;;;;;5027339;28;20049;-75
2021/11/22 05:39:09;;;;;;;0.82;0.35;;;14.00;99.90;;;;;;5030673;28;20512;-74
2021/11/22 05:41:35;;;;;;;1.10;0.32;;;14.00;99.90;;;;;;5030997;28;20053;-75
2021/11/22 05:44:02;;;;;;;0.75;0.40;;;14.00;99.90;;;;;;5030523;28;20129;-77
2021/11/22 05:46:28;;;;;;;0.70;0.28;;;14.00;99.90;;;;;;5028097;28;20072;-75
2021/11/22 05:48:53;;;;;;;0.40;0.32;;;14.00;99.90;;;;;;5029476;28;20049;-75
2021/11/22 05:51:20;;;;;;;1.92;0.68;;;14.00;99.90;;;;;;5029251;28;20041;-76
2021/11/22 05:53:48;;;;;;;0.55;0.45;;;14.00;99.90;;;;;;5030688;28;20102;-75
2021/11/22 05:56:17;;;;;;;1.85;0.50;;;14.00;99.90;;;;;;5020914;28;20184;-75
2021/11/22 05:58:44;;;;;;;0.40;0.30;;;14.00;99.90;;;;;;5025985;28;20128;-75
2021/11/22 06:01:09;;;;;;;0.63;0.30;;;14.00;99.90;;;;;;5029255;28;20053;-75
2021/11/22 06:03:35;;;;;;;2.75;0.57;;;13.90;99.90;;;;;;5030622;28;20076;-75
2021/11/22 06:06:01;;;;;;;2.70;0.22;;;14.00;99.90;;;;;;5029124;28;20052;-75
2021/11/22 06:08:28;;;;;;;0.60;0.22;;;13.90;99.90;;;;;;5020529;28;20617;-76
2021/11/22 06:10:53;;;;;;;0.80;0.30;;;13.90;99.90;;;;;;5030451;28;20048;-74
2021/11/22 06:13:20;;;;;;;0.60;0.30;;;13.90;99.90;;;;;;5029910;28;20045;-74
2021/11/22 06:15:47;;;;;;;0.40;0.30;;;13.90;99.90;;;;;;5030555;28;20080;-75
2021/11/22 06:18:14;;;;;;;0.82;0.30;;;13.90;99.90;;;;;;5017131;28;20401;-75
2021/11/22 06:20:41;;;;;;;0.60;0.20;;;13.90;99.90;;;;;;5030496;28;20154;-75
2021/11/22 06:23:07;;;;;;;0.43;0.20;;;13.90;99.90;;;;;;5029632;28;20124;-77
2021/11/22 06:25:34;;;;;;;1.27;0.28;;;13.90;99.90;;;;;;5029492;28;20190;-74
2021/11/22 06:28:01;;;;;;;0.95;0.20;;;13.90;99.90;;;;;;5019067;28;20073;-75
2021/11/22 06:30:26;;;;;;;0.82;0.40;;;13.90;99.90;;;;;;5029794;28;20057;-75
2021/11/22 06:32:53;;;;;;;0.80;0.40;;;13.90;99.90;;;;;;5030113;28;20111;-74
2021/11/22 06:35:20;;;;;;;0.90;0.50;;;13.80;99.90;;;;;;5029699;28;20528;-72
2021/11/22 06:37:47;;;;;;;0.38;0.30;;;13.90;99.90;;;;;;5026839;28;20100;-75
2021/11/22 06:40:13;;;;;;;3.72;0.47;;;13.90;99.90;;;;;;5026462;28;20049;-75
2021/11/22 06:42:39;;;;;;;1.13;0.35;;;13.90;99.90;;;;;;5030025;28;20444;-75
2021/11/22 06:45:06;;;;;;;0.80;0.20;;;14.00;99.90;;;;;;5030106;28;20053;-76
2021/11/22 06:47:33;;;;;;;4.32;0.22;;;14.00;99.90;;;;;;5028275;28;20046;-75
2021/11/22 06:49:59;;;;;;;0.13;0.10;;;14.00;99.90;;;;;;5029180;28;20089;-75
2021/11/22 06:52:25;;;;;;;0.22;0.20;;;14.10;99.90;;;;;;5028239;28;20147;-76
2021/11/22 06:54:53;;;;;;;2.50;0.52;;;14.20;99.90;;;;;;5029865;28;20573;-75
2021/11/22 06:57:19;;;;;;;0.38;0.32;;;14.20;99.90;;;;;;5011894;28;20049;-75
2021/11/22 06:59:46;;;;;;;0.22;0.10;;;14.30;99.90;;;;;;5029089;28;20037;-75
2021/11/22 07:02:13;;;;;;;0.57;0.20;;;14.40;99.90;;;;;;5028878;28;20089;-76
2021/11/22 07:04:41;;;;;;;0.20;0.20;;;14.40;99.90;;;;;;5028845;28;20037;-75
2021/11/22 07:07:07;;;;;;;0.55;0.30;;;14.50;99.90;;;;;;5028589;28;20053;-75
2021/11/22 07:09:33;;;;;;;0.30;0.30;;;14.50;99.90;;;;;;5009737;28;20469;-75
2021/11/22 07:11:59;;;;;;;0.28;0.17;;;14.60;99.90;;;;;;5029777;28;20120;-76
2021/11/22 07:14:24;;;;;;;0.43;0.20;;;14.70;99.90;;;;;;5027939;28;20378;-75
2021/11/22 07:16:52;;;;;;;0.30;0.30;;;14.70;99.90;;;;;;5028855;28;20417;-75
2021/11/22 07:19:18;;;;;;;0.63;0.30;;;14.80;99.90;;;;;;5026066;28;20041;-75
2021/11/22 07:21:43;;;;;;;0.30;0.30;;;14.80;99.90;;;;;;5028216;28;20051;-77
2021/11/22 07:24:09;;;;;;;0.20;0.20;;;14.80;99.90;;;;;;5028562;28;20493;-75
2021/11/22 07:26:35;;;;;;;0.93;0.50;;;14.90;99.90;;;;;;5011521;28;20138;-75
2021/11/22 07:29:01;;;;;;;0.30;0.20;;;14.90;99.90;;;;;;5028616;28;20045;-76
2021/11/22 07:31:27;;;;;;;1.75;0.60;;;15.00;99.90;;;;;;5027128;28;20085;-75
2021/11/22 07:33:52;;;;;;;1.95;0.20;;;15.10;99.90;;;;;;5029472;28;20448;-75
2021/11/22 07:36:18;;;;;;;0.50;0.40;;;15.20;99.90;;;;;;5028975;28;20053;-75
2021/11/22 07:38:44;;;;;;;1.55;0.25;;;15.20;99.90;;;;;;5031408;28;20077;-76
2021/11/22 07:41:10;;;;;;;0.35;0.15;;;15.20;99.90;;;;;;5024026;28;20096;-75
2021/11/22 07:43:35;;;;;;;1.58;0.32;;;15.20;99.90;;;;;;5029302;28;20080;-76
2021/11/22 07:46:01;;;;;;;0.20;0.10;;;15.20;99.90;;;;;;5033456;28;20041;-75
2021/11/22 07:48:28;;;;;;;0.20;0.20;;;15.30;99.90;;;;;;5032286;28;20309;-75
2021/11/22 07:50:54;;;;;;;1.48;0.30;;;15.30;99.90;;;;;;5032650;28;20045;-75
2021/11/22 07:53:19;;;;;;;0.13;0.13;;;15.40;99.90;;;;;;5032693;28;20057;-76
2021/11/22 07:55:46;;;;;;;2.33;0.40;;;15.40;99.90;;;;;;5031814;28;20116;-75
2021/11/22 07:58:13;;;;;;;0.57;0.30;;;15.40;99.90;;;;;;5033237;28;20113;-75
2021/11/22 08:00:39;;;;;;;0.30;0.20;;;15.40;99.90;;;;;;5031259;28;20029;-76
2021/11/22 08:03:05;;;;;;;0.85;0.32;;;15.40;99.90;;;;;;5030571;28;20053;-75
2021/11/22 08:05:32;;;;;;;0.30;0.30;;;15.40;99.90;;;;;;5014161;28;20175;-75
2021/11/22 08:07:58;;;;;;;0.85;0.30;;;15.40;99.90;;;;;;5030567;28;20084;-76
2021/11/22 08:10:27;;;;;;;0.10;0.10;;;15.40;99.90;;;;;;5024319;28;20049;-76
2021/11/22 08:12:59;;;;;;;0.77;0.30;;;15.40;99.90;;;;;;5014286;28;20383;-76
2021/11/22 08:15:27;;;;;;;0.20;0.10;;;15.40;99.90;;;;;;5029040;28;20049;-76
2021/11/22 08:17:53;;;;;;;0.75;0.20;;;15.50;99.90;;;;;;5021857;28;20050;-76
2021/11/22 08:20:21;;;;;;;1.65;0.40;;;15.50;99.90;;;;;;5022266;28;20064;-77
2021/11/22 08:22:48;;;;;;;0.73;0.40;;;15.60;99.90;;;;;;5032153;28;20509;-76
2021/11/22 08:25:15;;;;;;;1.95;0.35;;;15.60;99.90;;;;;;5030609;28;20203;-76
2021/11/22 08:27:41;;;;;;;0.30;0.20;;;15.70;99.90;;;;;;5024239;28;20513;-75
2021/11/22 08:30:10;;;;;;;0.25;0.17;;;15.80;99.90;;;;;;5021151;28;20045;-74
2021/11/22 08:32:36;;;;;;;0.25;0.13;;;15.90;99.90;;;;;;5021816;28;20510;-75
2021/11/22 08:35:04;;;;;;;0.20;0.20;;;16.00;99.90;;;;;;5025494;28;20080;-74
2021/11/22 08:37:29;;;;;;;31.65;0.70;;;16.20;99.90;;;;;;5030329;28;20041;-74
2021/11/22 08:39:56;;;;;;;0.28;0.28;;;16.30;99.90;;;;;;5031395;28;20099;-76
2021/11/22 08:42:22;;;;;;;2.72;0.30;;;16.40;99.90;;;;;;5029286;28;20045;-74
2021/11/22 08:44:49;;;;;;;1.58;0.32;;;16.50;99.90;;;;;;5031490;28;20049;-74
2021/11/22 08:47:15;;;;;;;1.13;0.40;;;16.60;99.90;;;;;;5031774;28;20129;-74
2021/11/22 08:49:42;;;;;;;0.50;0.38;;;16.70;99.90;;;;;;5029822;28;20161;-75
2021/11/22 08:52:09;;;;;;;1.10;0.30;;;16.80;99.90;;;;;;5025715;28;20563;-75
2021/11/22 08:54:35;;;;;;;0.95;0.40;;;16.90;99.90;;;;;;5027639;28;20531;-76
2021/11/22 08:57:02;;;;;;;1.58;0.35;;;17.10;99.90;;;;;;5027306;28;20057;-75
2021/11/22 08:59:28;;;;;;;1.83;0.40;;;17.20;99.90;;;;;;5028891;28;20070;-75
2021/11/22 09:01:53;;;;;;;0.65;0.50;;;17.40;99.90;;;;;;5007231;28;20393;-74
2021/11/22 09:04:19;;;;;;;1.50;0.50;;;17.50;99.90;;;;;;5029325;28;20131;-75
2021/11/22 09:06:45;;;;;;;6.43;0.45;;;17.50;99.90;;;;;;5028343;28;20481;-75
2021/11/22 09:09:11;;;;;;;1.30;0.45;;;17.60;99.90;;;;;;5029810;28;20045;-74
2021/11/22 09:11:39;;;;;;;2.70;0.50;;;17.70;99.90;;;;;;5030626;28;20363;-75
2021/11/22 09:14:05;;;;;;;0.60;0.40;;;17.70;99.90;;;;;;5030472;28;20406;-75
2021/11/22 09:16:31;;;;;;;2.35;0.40;;;17.70;99.90;;;;;;5027696;28;20042;-75
2021/11/22 09:18:59;;;;;;;1.98;0.55;;;17.80;99.90;;;;;;5012654;28;20050;-75
2021/11/22 09:21:28;;;;;;;3.17;0.60;;;17.90;99.90;;;;;;5016851;28;20591;-75
2021/11/22 09:23:55;;;;;;;6.53;0.60;;;17.90;99.90;;;;;;5014439;28;20040;-74
2021/11/22 09:26:21;;;;;;;3.58;0.32;;;17.90;99.90;;;;;;5029333;28;20376;-76
2021/11/22 09:28:47;;;;;;;0.82;0.55;;;17.90;99.90;;;;;;5011453;28;20049;-75
2021/11/22 09:31:15;;;;;;;1.27;0.50;;;18.00;99.90;;;;;;5011903;28;20125;-74
2021/11/22 09:33:41;;;;;;;6.85;0.55;;;18.00;99.90;;;;;;5026991;28;20060;-74
2021/11/22 09:36:07;;;;;;;8.05;0.52;;;18.00;99.90;;;;;;5021451;28;20042;-74
2021/11/22 09:38:33;;;;;;;6.15;0.98;;;18.00;99.90;;;;;;5011704;28;20045;-75
2021/11/22 09:40:59;;;;;;;5.43;1.17;;;18.00;99.90;;;;;;5011715;28;20050;-74
2021/11/22 09:43:27;;;;;;;2.80;0.60;;;18.00;99.90;;;;;;5010186;28;20111;-76
2021/11/22 09:45:53;;;;;;;4.40;0.90;;;18.00;99.90;;;;;;5016656;28;20076;-74
2021/11/22 09:48:18;;;;;;;9.00;0.60;;;18.00;99.90;;;;;;5010620;28;20481;-74
2021/11/22 09:50:44;;;;;;;6.50;1.40;;;18.10;99.90;;;;;;5023087;28;20052;-75
2021/11/22 09:53:11;;;;;;;5.03;0.70;;;18.20;99.90;;;;;;5020769;28;20051;-74
2021/11/22 09:55:37;;;;;;;3.28;0.80;;;18.20;99.90;;;;;;5019047;28;20509;-74
2021/11/22 09:58:05;;;;;;;5.97;0.55;;;18.20;99.90;;;;;;5028695;28;20079;-74
2021/11/22 10:00:43;;;;;;;1.38;0.60;;;18.40;99.90;;;;;;5023928;28;20453;-74
2021/11/22 10:03:15;;;;;;;6.03;0.70;;;18.50;99.90;;;;;;5031978;28;20478;-73
2021/11/22 10:05:42;;;;;;;4.10;0.90;;;18.70;99.90;;;;;;5028791;28;20049;-74
2021/11/22 10:08:22;;;;;;;9.70;0.82;;;18.80;99.90;;;;;;5025152;28;20207;-75
2021/11/22 10:10:54;;;;;;;2.95;0.82;;;19.00;99.90;;;;;;5025025;28;20107;-75
2021/11/22 10:13:26;;;;;;;10.48;1.23;;;19.10;99.90;;;;;;5023997;28;20052;-73
2021/11/22 10:15:56;;;;;;;7.50;0.80;;;19.10;99.90;;;;;;5025559;28;20045;-73
2021/11/22 10:18:24;;;;;;;4.80;1.10;;;19.30;99.90;;;;;;5027426;28;20049;-74
2021/11/22 10:20:51;;;;;;;13.37;1.47;;;19.30;99.90;;;;;;5019802;28;20406;-73
2021/11/22 10:23:23;;;;;;;9.35;1.50;;;19.40;99.90;;;;;;5014327;28;20306;-74
2021/11/22 10:25:49;;;;;;;6.75;1.15;;;19.50;99.90;;;;;;5019451;28;20179;-74
2021/11/22 10:28:25;;;;;;;5.05;0.90;;;19.50;99.90;;;;;;5019340;28;20099;-74
2021/11/22 10:31:16;;;;;;;5.60;1.23;;;19.60;99.90;;;;;;5018417;28;20034;-74
2021/11/22 10:33:44;;;;;;;6.63;1.20;;;19.60;99.90;;;;;;5020539;28;20042;-74
2021/11/22 10:36:13;;;;;;;8.27;1.33;;;19.70;99.90;;;;;;5021339;28;21364;-73
2021/11/22 10:38:42;;;;;;;5.75;0.88;;;19.70;99.90;;;;;;5025715;28;20511;-75
2021/11/22 10:41:10;;;;;;;;;;;19.80;99.90;;;;;;5020618;28;20061;-74
2021/11/22 10:43:50;;;;;;;5.85;0.90;;;19.90;99.90;;;;;;5018918;28;19929;-75
2021/11/22 10:46:26;;;;;;;8.77;1.25;;;19.90;99.90;;;;;;5022293;28;20158;-75
2021/11/22 10:48:53;;;;;;;11.38;1.25;;;20.00;99.90;;;;;;5017946;28;20473;-74
2021/11/22 10:51:27;;;;;;;4.25;1.00;;;20.00;99.90;;;;;;5021308;28;20045;-74
2021/11/22 10:54:04;;;;;;;8.93;1.30;;;20.00;99.90;;;;;;5023619;28;20049;-74
2021/11/22 10:56:37;;;;;;;4.95;1.30;;;20.10;99.90;;;;;;5019584;28;20044;-75
2021/11/22 10:59:09;;;;;;;3.90;0.85;;;20.10;99.90;;;;;;5021702;28;20052;-80
2021/11/22 11:01:55;;;;;;;7.20;1.13;;;20.20;99.90;;;;;;5001697;28;20397;-75
2021/11/22 11:04:27;;;;;;;9.85;1.27;;;20.30;99.90;;;;;;5019664;28;20045;-74
2021/11/22 11:06:58;;;;;;;3.78;0.95;;;20.40;99.90;;;;;;5027706;28;20045;-74
2021/11/22 11:09:30;;;;;;;11.23;1.20;;;20.40;99.90;;;;;;5027612;28;20111;-74
2021/11/22 11:12:10;;;;;;;4.15;0.80;;;20.40;99.90;;;;;;5027730;28;20508;-74
2021/11/22 11:14:38;;;;;;;8.10;1.30;;;20.50;99.90;;;;;;5022733;28;20247;-76
2021/11/22 11:17:22;;;;;;;10.68;1.00;;;20.50;99.90;;;;;;5018819;28;20057;-74
2021/11/22 11:19:54;;;;;;;6.43;1.15;;;20.50;99.90;;;;;;5016057;28;20053;-74
2021/11/22 11:22:21;;;;;;;10.18;0.98;;;20.50;99.90;;;;;;5016618;28;20054;-74
2021/11/22 11:24:47;;;;;;;4.55;1.10;;;20.50;99.90;;;;;;5023431;28;20128;-74
2021/11/22 11:27:13;;;;;;;3.38;1.10;;;20.50;99.90;;;;;;5027005;28;20037;-74
2021/11/22 11:29:38;;;;;;;5.18;1.27;;;20.50;99.90;;;;;;5020584;28;20033;-76
2021/11/22 11:32:04;;;;;;;6.38;0.70;;;20.50;99.90;;;;;;5027769;28;20057;-74
2021/11/22 11:34:33;;;;;;;4.07;1.42;;;20.50;99.90;;;;;;5025332;28;20034;-74
2021/11/22 11:37:30;;;;;;;8.68;1.10;;;20.50;99.90;;;;;;5024766;28;20113;-73
2021/11/22 11:40:22;;;;;;;2.65;0.70;;;20.60;99.90;;;;;;5029081;28;20063;-73
2021/11/22 11:43:11;;;;;;;5.60;0.80;;;20.50;99.90;;;;;;5029522;28;20485;-74
2021/11/22 11:45:49;;;;;;;8.10;0.95;;;20.60;99.90;;;;;;5027272;28;20099;-73
2021/11/22 11:48:57;;;;;;;4.40;0.97;;;20.60;99.90;;;;;;5019141;28;20092;-74
2021/11/22 11:51:38;;;;;;;3.30;0.68;;;20.60;99.90;;;;;;5012902;28;20034;-75
2021/11/22 11:54:16;;;;;;;5.03;1.05;;;20.60;99.90;;;;;;5026620;28;20057;-74
2021/11/22 11:56:50;;;;;;;5.43;1.25;;;20.70;99.90;;;;;;5026224;28;20393;-73
2021/11/22 11:59:26;;;;;;;5.97;1.25;;;20.60;99.90;;;;;;5022258;28;20544;-73
2021/11/22 12:02:03;;;;;;;12.50;1.00;;;20.50;99.90;;;;;;5025365;28;20049;-74
2021/11/22 12:04:52;;;;;;;13.23;1.00;;;20.40;99.90;;;;;;5024398;28;20131;-74
2021/11/22 12:07:43;;;;;;;13.05;1.38;;;20.20;99.90;;;;;;5016652;28;20050;-74
2021/11/22 12:10:22;;;;;;;6.40;1.05;;;19.90;99.90;;;;;;5018449;28;20045;-73
2021/11/22 12:12:56;;;;;;;3.25;0.85;;;19.70;99.90;;;;;;5027417;28;20124;-73
2021/11/22 12:15:29;;;;;;;14.10;0.90;;;19.60;99.90;;;;;;5021141;28;20095;-73
2021/11/22 12:17:55;;;;;;;2.45;0.82;;;19.50;99.90;;;;;;5020591;28;20461;-75
2021/11/22 12:20:24;;;;;;;8.07;0.73;;;19.50;99.90;;;;;;5028744;28;20049;-73
2021/11/22 12:22:53;;;;;;;5.75;0.93;;;19.50;99.90;;;;;;5005467;28;20050;-73
2021/11/22 12:25:37;;;;;;;6.40;0.80;;;19.50;99.90;;;;;;5017493;28;20476;-73
2021/11/22 12:28:35;;;;;;;4.88;1.08;;;19.40;99.90;;;;;;5029881;28;20059;-73
2021/11/22 12:31:02;;;;;;;5.47;0.65;;;19.20;99.90;;;;;;5022654;28;20421;-73
2021/11/22 12:33:28;;;;;;;6.15;1.05;;;19.10;99.90;;;;;;5045966;28;20049;-73
2021/11/22 12:35:55;;;;;;;3.65;0.68;;;19.00;99.90;;;;;;5026138;28;20503;-73
2021/11/22 12:38:31;;;;;;;11.63;1.02;;;18.90;99.90;;;;;;5022184;28;20053;-73
2021/11/22 12:41:01;;;;;;;19.98;2.00;;;18.80;99.90;;;;;;5024398;28;20720;-73
2021/11/22 12:43:37;;;;;;;8.60;1.70;;;18.70;99.90;;;;;;5026690;28;20124;-72
2021/11/22 12:46:06;;;;;;;4.35;1.15;;;18.60;99.90;;;;;;5015719;28;20050;-73
2021/11/22 12:48:33;;;;;;;;;;;18.60;99.90;;;;;;5015956;28;20425;-72
2021/11/22 12:51:05;;;;;;;5.05;1.05;;;18.50;99.90;;;;;;5012498;28;19925;-73
2021/11/22 12:53:31;;;;;;;18.40;1.85;;;18.50;99.90;;;;;;5028661;28;20437;-74